sensor_id;sensor_type;location;lat;lon;timestamp;temperature;humidity
10089;DHT22;51898;49.864;8.550;2023-02-10T00:01:43;-2.30;80.80
10089;DHT22;51898;49.864;8.550;2023-02-10T00:04:44;-2.30;80.60
10089;DHT22;51898;49.864;8.550;2023-02-10T00:07:46;-2.30;80.20
10089;DHT22;51898;49.864;8.550;2023-02-10T00:10:47;-2.30;79.60
10089;DHT22;51898;49.864;8.550;2023-02-10T00:13:49;-2.30;79.40
10089;DHT22;51898;49.864;8.550;2023-02-10T00:16:52;-2.30;79.70
10089;DHT22;51898;49.864;8.550;2023-02-10T00:19:54;-2.40;80.00
10089;DHT22;51898;49.864;8.550;2023-02-10T00:22:56;-2.40;80.20
10089;DHT22;51898;49.864;8.550;2023-02-10T00:25:57;-2.30;79.80
10089;DHT22;51898;49.864;8.550;2023-02-10T00:28:59;-2.40;79.60
10089;DHT22;51898;49.864;8.550;2023-02-10T00:32:01;-2.40;80.00
10089;DHT22;51898;49.864;8.550;2023-02-10T00:35:03;-2.40;80.20
10089;DHT22;51898;49.864;8.550;2023-02-10T00:38:04;-2.40;80.00
10089;DHT22;51898;49.864;8.550;2023-02-10T00:41:09;-2.40;80.20
10089;DHT22;51898;49.864;8.550;2023-02-10T00:44:11;-2.40;80.60
10089;DHT22;51898;49.864;8.550;2023-02-10T00:47:13;-2.40;80.90
10089;DHT22;51898;49.864;8.550;2023-02-10T00:50:15;-2.40;81.00
10089;DHT22;51898;49.864;8.550;2023-02-10T00:53:16;-2.30;80.90
10089;DHT22;51898;49.864;8.550;2023-02-10T00:56:19;-2.30;80.80
10089;DHT22;51898;49.864;8.550;2023-02-10T00:59:21;-2.30;80.70
10089;DHT22;51898;49.864;8.550;2023-02-10T01:02:22;-2.20;80.50
10089;DHT22;51898;49.864;8.550;2023-02-10T01:05:24;-2.30;80.40
10089;DHT22;51898;49.864;8.550;2023-02-10T01:08:26;-2.20;80.30
10089;DHT22;51898;49.864;8.550;2023-02-10T01:11:27;-2.30;80.30
10089;DHT22;51898;49.864;8.550;2023-02-10T01:14:29;-2.30;80.20
10089;DHT22;51898;49.864;8.550;2023-02-10T01:17:31;-2.30;80.30
10089;DHT22;51898;49.864;8.550;2023-02-10T01:20:33;-2.30;80.50
10089;DHT22;51898;49.864;8.550;2023-02-10T01:23:35;-2.30;80.40
10089;DHT22;51898;49.864;8.550;2023-02-10T01:26:36;-2.30;80.60
10089;DHT22;51898;49.864;8.550;2023-02-10T01:29:38;-2.30;80.50
10089;DHT22;51898;49.864;8.550;2023-02-10T01:32:40;-2.30;80.80
10089;DHT22;51898;49.864;8.550;2023-02-10T01:35:41;-2.30;80.90
10089;DHT22;51898;49.864;8.550;2023-02-10T01:38:44;-2.40;81.00
10089;DHT22;51898;49.864;8.550;2023-02-10T01:41:46;-2.40;81.20
10089;DHT22;51898;49.864;8.550;2023-02-10T01:47:51;-2.40;81.30
10089;DHT22;51898;49.864;8.550;2023-02-10T01:50:58;-2.40;81.30
10089;DHT22;51898;49.864;8.550;2023-02-10T01:54:04;-2.40;81.30
10089;DHT22;51898;49.864;8.550;2023-02-10T01:57:07;-2.40;81.30
10089;DHT22;51898;49.864;8.550;2023-02-10T02:00:10;-2.40;81.60
10089;DHT22;51898;49.864;8.550;2023-02-10T02:03:13;-2.40;81.70
10089;DHT22;51898;49.864;8.550;2023-02-10T02:06:15;-2.40;81.90
10089;DHT22;51898;49.864;8.550;2023-02-10T02:09:16;-2.40;81.80
10089;DHT22;51898;49.864;8.550;2023-02-10T02:12:24;-2.40;81.90
10089;DHT22;51898;49.864;8.550;2023-02-10T02:15:38;-2.40;81.90
10089;DHT22;51898;49.864;8.550;2023-02-10T02:22:34;-2.30;82.00
10089;DHT22;51898;49.864;8.550;2023-02-10T02:26:13;-2.30;82.00
10089;DHT22;51898;49.864;8.550;2023-02-10T02:29:34;-2.40;82.00
10089;DHT22;51898;49.864;8.550;2023-02-10T02:32:48;-2.40;82.10
10089;DHT22;51898;49.864;8.550;2023-02-10T02:36:00;-2.30;81.90
10089;DHT22;51898;49.864;8.550;2023-02-10T02:39:05;-2.40;82.10
10089;DHT22;51898;49.864;8.550;2023-02-10T02:42:30;-2.40;82.10
10089;DHT22;51898;49.864;8.550;2023-02-10T02:45:50;-2.40;82.20
10089;DHT22;51898;49.864;8.550;2023-02-10T02:55:55;-2.40;82.00
10089;DHT22;51898;49.864;8.550;2023-02-10T03:02:07;-2.50;82.10
10089;DHT22;51898;49.864;8.550;2023-02-10T03:05:09;-2.50;82.30
10089;DHT22;51898;49.864;8.550;2023-02-10T03:08:11;-2.50;82.50
10089;DHT22;51898;49.864;8.550;2023-02-10T03:11:12;-2.50;82.50
10089;DHT22;51898;49.864;8.550;2023-02-10T03:14:14;-2.50;82.50
10089;DHT22;51898;49.864;8.550;2023-02-10T03:17:16;-2.50;82.70
10089;DHT22;51898;49.864;8.550;2023-02-10T03:20:18;-2.40;82.90
10089;DHT22;51898;49.864;8.550;2023-02-10T03:23:19;-2.40;82.80
10089;DHT22;51898;49.864;8.550;2023-02-10T03:26:21;-2.30;83.00
10089;DHT22;51898;49.864;8.550;2023-02-10T03:29:23;-2.20;83.00
10089;DHT22;51898;49.864;8.550;2023-02-10T03:32:25;-2.20;82.80
10089;DHT22;51898;49.864;8.550;2023-02-10T03:35:26;-2.10;82.40
10089;DHT22;51898;49.864;8.550;2023-02-10T03:38:29;-2.10;82.10
10089;DHT22;51898;49.864;8.550;2023-02-10T03:41:31;-2.10;81.90
10089;DHT22;51898;49.864;8.550;2023-02-10T03:44:33;-2.00;81.70
10089;DHT22;51898;49.864;8.550;2023-02-10T03:47:34;-2.00;81.60
10089;DHT22;51898;49.864;8.550;2023-02-10T03:50:36;-2.00;81.60
10089;DHT22;51898;49.864;8.550;2023-02-10T03:53:38;-2.00;81.60
10089;DHT22;51898;49.864;8.550;2023-02-10T03:56:40;-1.90;81.60
10089;DHT22;51898;49.864;8.550;2023-02-10T03:59:41;-1.90;81.60
10089;DHT22;51898;49.864;8.550;2023-02-10T04:02:43;-1.90;81.70
10089;DHT22;51898;49.864;8.550;2023-02-10T04:05:45;-1.90;81.80
10089;DHT22;51898;49.864;8.550;2023-02-10T04:08:47;-1.90;82.00
10089;DHT22;51898;49.864;8.550;2023-02-10T04:11:49;-1.80;82.00
10089;DHT22;51898;49.864;8.550;2023-02-10T04:14:51;-1.70;82.00
10089;DHT22;51898;49.864;8.550;2023-02-10T04:17:53;-1.60;81.80
10089;DHT22;51898;49.864;8.550;2023-02-10T04:20:54;-1.60;81.90
10089;DHT22;51898;49.864;8.550;2023-02-10T04:23:56;-1.50;82.20
10089;DHT22;51898;49.864;8.550;2023-02-10T04:26:58;-1.50;82.10
10089;DHT22;51898;49.864;8.550;2023-02-10T04:29:59;-1.40;81.90
10089;DHT22;51898;49.864;8.550;2023-02-10T04:33:01;-1.30;81.70
10089;DHT22;51898;49.864;8.550;2023-02-10T04:36:03;-1.30;81.90
10089;DHT22;51898;49.864;8.550;2023-02-10T04:39:05;-1.20;81.70
10089;DHT22;51898;49.864;8.550;2023-02-10T04:42:06;-1.20;81.70
10089;DHT22;51898;49.864;8.550;2023-02-10T04:45:08;-1.20;81.70
10089;DHT22;51898;49.864;8.550;2023-02-10T04:48:10;-1.10;81.70
10089;DHT22;51898;49.864;8.550;2023-02-10T04:51:12;-1.10;81.70
10089;DHT22;51898;49.864;8.550;2023-02-10T04:54:14;-1.00;81.40
10089;DHT22;51898;49.864;8.550;2023-02-10T04:57:16;-0.90;81.20
10089;DHT22;51898;49.864;8.550;2023-02-10T05:00:17;-0.90;81.00
10089;DHT22;51898;49.864;8.550;2023-02-10T05:03:19;-0.80;81.00
10089;DHT22;51898;49.864;8.550;2023-02-10T05:06:21;-0.80;81.00
10089;DHT22;51898;49.864;8.550;2023-02-10T05:09:22;-0.80;81.20
10089;DHT22;51898;49.864;8.550;2023-02-10T05:12:24;-0.70;81.10
10089;DHT22;51898;49.864;8.550;2023-02-10T05:15:26;-0.70;81.30
10089;DHT22;51898;49.864;8.550;2023-02-10T05:18:28;-0.60;81.20
10089;DHT22;51898;49.864;8.550;2023-02-10T05:21:29;-0.60;81.00
10089;DHT22;51898;49.864;8.550;2023-02-10T05:24:31;-0.60;81.00
10089;DHT22;51898;49.864;8.550;2023-02-10T05:27:33;-0.60;81.10
10089;DHT22;51898;49.864;8.550;2023-02-10T05:30:35;-0.60;80.90
10089;DHT22;51898;49.864;8.550;2023-02-10T05:33:37;-0.60;81.20
10089;DHT22;51898;49.864;8.550;2023-02-10T05:36:38;-0.50;81.80
10089;DHT22;51898;49.864;8.550;2023-02-10T05:39:40;-0.50;81.40
10089;DHT22;51898;49.864;8.550;2023-02-10T05:42:42;-0.50;81.20
10089;DHT22;51898;49.864;8.550;2023-02-10T05:45:45;-0.50;80.90
10089;DHT22;51898;49.864;8.550;2023-02-10T05:48:48;-0.50;80.80
10089;DHT22;51898;49.864;8.550;2023-02-10T05:51:50;-0.50;80.60
10089;DHT22;51898;49.864;8.550;2023-02-10T05:54:53;-0.60;80.90
10089;DHT22;51898;49.864;8.550;2023-02-10T05:57:54;-0.60;81.30
10089;DHT22;51898;49.864;8.550;2023-02-10T06:00:56;-0.60;81.70
10089;DHT22;51898;49.864;8.550;2023-02-10T06:03:58;-0.60;81.50
10089;DHT22;51898;49.864;8.550;2023-02-10T06:06:59;-0.60;81.70
10089;DHT22;51898;49.864;8.550;2023-02-10T06:10:01;-0.60;81.50
10089;DHT22;51898;49.864;8.550;2023-02-10T06:13:03;-0.60;81.60
10089;DHT22;51898;49.864;8.550;2023-02-10T06:16:05;-0.60;81.50
10089;DHT22;51898;49.864;8.550;2023-02-10T06:19:06;-0.60;81.70
10089;DHT22;51898;49.864;8.550;2023-02-10T06:22:09;-0.60;81.70
10089;DHT22;51898;49.864;8.550;2023-02-10T06:25:11;-0.50;81.60
10089;DHT22;51898;49.864;8.550;2023-02-10T06:28:13;-0.50;81.40
10089;DHT22;51898;49.864;8.550;2023-02-10T06:31:15;-0.60;81.40
10089;DHT22;51898;49.864;8.550;2023-02-10T06:34:18;-0.70;82.00
10089;DHT22;51898;49.864;8.550;2023-02-10T06:37:19;-0.60;82.00
10089;DHT22;51898;49.864;8.550;2023-02-10T06:40:21;-0.60;82.20
10089;DHT22;51898;49.864;8.550;2023-02-10T06:43:23;-0.70;82.60
10089;DHT22;51898;49.864;8.550;2023-02-10T06:46:25;-0.70;82.70
10089;DHT22;51898;49.864;8.550;2023-02-10T06:49:27;-0.70;82.90
10089;DHT22;51898;49.864;8.550;2023-02-10T06:52:28;-0.70;82.50
10089;DHT22;51898;49.864;8.550;2023-02-10T06:55:31;-0.80;82.60
10089;DHT22;51898;49.864;8.550;2023-02-10T06:58:33;-0.80;82.90
10089;DHT22;51898;49.864;8.550;2023-02-10T07:01:35;-0.90;83.00
10089;DHT22;51898;49.864;8.550;2023-02-10T07:04:37;-0.80;82.70
10089;DHT22;51898;49.864;8.550;2023-02-10T07:07:39;-0.80;82.70
10089;DHT22;51898;49.864;8.550;2023-02-10T07:10:40;-0.80;82.40
10089;DHT22;51898;49.864;8.550;2023-02-10T07:13:42;-0.80;82.30
10089;DHT22;51898;49.864;8.550;2023-02-10T07:16:44;-0.70;81.90
10089;DHT22;51898;49.864;8.550;2023-02-10T07:19:46;-0.70;81.50
10089;DHT22;51898;49.864;8.550;2023-02-10T07:22:48;-0.60;81.40
10089;DHT22;51898;49.864;8.550;2023-02-10T07:25:50;-0.60;81.90
10089;DHT22;51898;49.864;8.550;2023-02-10T07:28:51;-0.50;81.40
10089;DHT22;51898;49.864;8.550;2023-02-10T07:31:53;-0.50;81.10
10089;DHT22;51898;49.864;8.550;2023-02-10T07:34:55;-0.40;80.90
10089;DHT22;51898;49.864;8.550;2023-02-10T07:37:56;-0.30;80.50
10089;DHT22;51898;49.864;8.550;2023-02-10T07:40:59;-0.40;80.50
10089;DHT22;51898;49.864;8.550;2023-02-10T07:44:01;-0.20;80.30
10089;DHT22;51898;49.864;8.550;2023-02-10T07:47:03;-0.20;80.10
10089;DHT22;51898;49.864;8.550;2023-02-10T07:50:05;-0.20;80.10
10089;DHT22;51898;49.864;8.550;2023-02-10T07:53:06;-0.10;80.20
10089;DHT22;51898;49.864;8.550;2023-02-10T07:56:08;-0.10;80.40
10089;DHT22;51898;49.864;8.550;2023-02-10T07:59:10;0.00;79.90
10089;DHT22;51898;49.864;8.550;2023-02-10T08:02:12;0.00;80.20
10089;DHT22;51898;49.864;8.550;2023-02-10T08:05:14;0.00;79.60
10089;DHT22;51898;49.864;8.550;2023-02-10T08:08:16;0.10;79.10
10089;DHT22;51898;49.864;8.550;2023-02-10T08:11:17;0.10;78.40
10089;DHT22;51898;49.864;8.550;2023-02-10T08:14:19;0.10;78.90
10089;DHT22;51898;49.864;8.550;2023-02-10T08:17:21;0.10;78.90
10089;DHT22;51898;49.864;8.550;2023-02-10T08:20:22;0.10;79.50
10089;DHT22;51898;49.864;8.550;2023-02-10T08:23:24;0.20;79.50
10089;DHT22;51898;49.864;8.550;2023-02-10T08:26:26;0.20;78.20
10089;DHT22;51898;49.864;8.550;2023-02-10T08:29:27;0.20;78.40
10089;DHT22;51898;49.864;8.550;2023-02-10T08:32:30;0.30;78.10
10089;DHT22;51898;49.864;8.550;2023-02-10T08:35:31;0.30;77.60
10089;DHT22;51898;49.864;8.550;2023-02-10T08:38:33;0.30;77.80
10089;DHT22;51898;49.864;8.550;2023-02-10T08:41:35;0.30;77.60
10089;DHT22;51898;49.864;8.550;2023-02-10T08:44:36;0.40;77.40
10089;DHT22;51898;49.864;8.550;2023-02-10T08:47:38;0.30;77.50
10089;DHT22;51898;49.864;8.550;2023-02-10T08:50:40;0.30;78.10
10089;DHT22;51898;49.864;8.550;2023-02-10T08:53:42;0.30;77.90
10089;DHT22;51898;49.864;8.550;2023-02-10T08:56:44;0.30;77.90
10089;DHT22;51898;49.864;8.550;2023-02-10T08:59:46;0.40;78.00
10089;DHT22;51898;49.864;8.550;2023-02-10T09:02:50;0.50;77.70
10089;DHT22;51898;49.864;8.550;2023-02-10T09:05:52;0.60;76.80
10089;DHT22;51898;49.864;8.550;2023-02-10T09:08:54;0.70;76.40
10089;DHT22;51898;49.864;8.550;2023-02-10T09:11:56;0.80;76.10
10089;DHT22;51898;49.864;8.550;2023-02-10T09:14:58;1.00;75.90
10089;DHT22;51898;49.864;8.550;2023-02-10T09:18:00;1.20;75.20
10089;DHT22;51898;49.864;8.550;2023-02-10T09:21:02;1.20;75.10
10089;DHT22;51898;49.864;8.550;2023-02-10T09:24:03;1.30;74.70
10089;DHT22;51898;49.864;8.550;2023-02-10T09:27:05;1.40;74.10
10089;DHT22;51898;49.864;8.550;2023-02-10T09:30:07;1.60;73.80
10089;DHT22;51898;49.864;8.550;2023-02-10T09:33:09;1.80;72.90
10089;DHT22;51898;49.864;8.550;2023-02-10T09:36:19;1.90;72.30
10089;DHT22;51898;49.864;8.550;2023-02-10T09:39:21;2.00;71.80
10089;DHT22;51898;49.864;8.550;2023-02-10T09:42:42;2.10;71.60
10089;DHT22;51898;49.864;8.550;2023-02-10T09:45:47;2.20;71.90
10089;DHT22;51898;49.864;8.550;2023-02-10T09:49:08;2.30;70.60
10089;DHT22;51898;49.864;8.550;2023-02-10T09:55:41;2.30;70.20
10089;DHT22;51898;49.864;8.550;2023-02-10T09:58:53;2.30;70.40
10089;DHT22;51898;49.864;8.550;2023-02-10T10:01:59;2.30;70.00
10089;DHT22;51898;49.864;8.550;2023-02-10T10:05:15;2.40;69.70
10089;DHT22;51898;49.864;8.550;2023-02-10T10:11:44;2.60;70.10
10089;DHT22;51898;49.864;8.550;2023-02-10T10:14:46;2.70;69.80
10089;DHT22;51898;49.864;8.550;2023-02-10T10:18:10;2.80;69.10
10089;DHT22;51898;49.864;8.550;2023-02-10T10:21:28;2.80;69.10
10089;DHT22;51898;49.864;8.550;2023-02-10T10:31:27;3.10;68.60
10089;DHT22;51898;49.864;8.550;2023-02-10T10:34:31;3.30;68.60
10089;DHT22;51898;49.864;8.550;2023-02-10T10:37:34;3.40;68.00
10089;DHT22;51898;49.864;8.550;2023-02-10T10:40:36;3.40;67.30
10089;DHT22;51898;49.864;8.550;2023-02-10T10:43:47;3.30;67.40
10089;DHT22;51898;49.864;8.550;2023-02-10T10:49:52;3.40;67.60
10089;DHT22;51898;49.864;8.550;2023-02-10T10:52:55;3.40;67.70
10089;DHT22;51898;49.864;8.550;2023-02-10T10:55:57;3.50;68.10
10089;DHT22;51898;49.864;8.550;2023-02-10T10:59:03;3.60;67.90
10089;DHT22;51898;49.864;8.550;2023-02-10T11:02:18;3.70;67.70
10089;DHT22;51898;49.864;8.550;2023-02-10T11:05:21;3.60;67.90
10089;DHT22;51898;49.864;8.550;2023-02-10T11:08:27;3.80;67.60
10089;DHT22;51898;49.864;8.550;2023-02-10T11:11:36;3.80;66.90
10089;DHT22;51898;49.864;8.550;2023-02-10T11:14:42;3.90;67.50
10089;DHT22;51898;49.864;8.550;2023-02-10T11:17:46;4.00;67.10
10089;DHT22;51898;49.864;8.550;2023-02-10T11:20:55;4.00;67.50
10089;DHT22;51898;49.864;8.550;2023-02-10T11:23:56;4.30;66.20
10089;DHT22;51898;49.864;8.550;2023-02-10T11:27:11;4.40;66.00
10089;DHT22;51898;49.864;8.550;2023-02-10T11:30:26;4.70;65.20
10089;DHT22;51898;49.864;8.550;2023-02-10T11:33:31;5.00;63.90
10089;DHT22;51898;49.864;8.550;2023-02-10T11:36:36;5.00;63.30
10089;DHT22;51898;49.864;8.550;2023-02-10T11:39:40;5.20;62.90
10089;DHT22;51898;49.864;8.550;2023-02-10T11:42:50;5.40;61.40
10089;DHT22;51898;49.864;8.550;2023-02-10T11:46:01;5.40;61.10
10089;DHT22;51898;49.864;8.550;2023-02-10T11:49:17;5.50;61.70
10089;DHT22;51898;49.864;8.550;2023-02-10T11:52:22;5.70;60.00
10089;DHT22;51898;49.864;8.550;2023-02-10T11:55:35;5.70;60.00
10089;DHT22;51898;49.864;8.550;2023-02-10T12:05:57;5.60;58.80
10089;DHT22;51898;49.864;8.550;2023-02-10T12:09:29;5.70;59.10
10089;DHT22;51898;49.864;8.550;2023-02-10T12:29:21;5.70;56.70
10089;DHT22;51898;49.864;8.550;2023-02-10T12:39:21;6.20;54.80
10089;DHT22;51898;49.864;8.550;2023-02-10T12:42:57;6.30;55.20
10089;DHT22;51898;49.864;8.550;2023-02-10T12:46:09;6.50;54.30
10089;DHT22;51898;49.864;8.550;2023-02-10T12:52:41;6.50;55.40
10089;DHT22;51898;49.864;8.550;2023-02-10T12:59:19;6.60;55.30
10089;DHT22;51898;49.864;8.550;2023-02-10T13:05:59;6.30;56.60
10089;DHT22;51898;49.864;8.550;2023-02-10T13:09:21;6.30;56.40
10089;DHT22;51898;49.864;8.550;2023-02-10T13:12:27;6.40;56.80
10089;DHT22;51898;49.864;8.550;2023-02-10T13:15:33;6.40;57.00
10089;DHT22;51898;49.864;8.550;2023-02-10T13:25:14;6.50;57.00
10089;DHT22;51898;49.864;8.550;2023-02-10T13:35:16;6.70;56.00
10089;DHT22;51898;49.864;8.550;2023-02-10T13:38:20;6.60;56.20
10089;DHT22;51898;49.864;8.550;2023-02-10T13:41:29;6.60;55.90
10089;DHT22;51898;49.864;8.550;2023-02-10T13:45:25;6.50;55.70
10089;DHT22;51898;49.864;8.550;2023-02-10T13:48:28;6.40;55.40
10089;DHT22;51898;49.864;8.550;2023-02-10T13:51:34;6.40;55.50
10089;DHT22;51898;49.864;8.550;2023-02-10T13:54:36;6.40;55.20
10089;DHT22;51898;49.864;8.550;2023-02-10T13:58:16;6.30;55.20
10089;DHT22;51898;49.864;8.550;2023-02-10T14:01:47;6.40;55.30
10089;DHT22;51898;49.864;8.550;2023-02-10T14:04:53;6.50;55.00
10089;DHT22;51898;49.864;8.550;2023-02-10T14:07:56;6.50;55.70
10089;DHT22;51898;49.864;8.550;2023-02-10T14:14:31;6.80;55.50
10089;DHT22;51898;49.864;8.550;2023-02-10T14:17:33;6.90;55.10
10089;DHT22;51898;49.864;8.550;2023-02-10T14:20:38;6.80;55.10
10089;DHT22;51898;49.864;8.550;2023-02-10T14:23:50;6.90;55.00
10089;DHT22;51898;49.864;8.550;2023-02-10T14:26:58;7.00;55.10
10089;DHT22;51898;49.864;8.550;2023-02-10T14:30:23;6.90;55.50
10089;DHT22;51898;49.864;8.550;2023-02-10T14:33:33;7.00;55.40
10089;DHT22;51898;49.864;8.550;2023-02-10T14:36:36;7.10;55.10
10089;DHT22;51898;49.864;8.550;2023-02-10T14:39:38;7.20;55.50
10089;DHT22;51898;49.864;8.550;2023-02-10T14:42:41;7.20;55.30
10089;DHT22;51898;49.864;8.550;2023-02-10T14:45:44;7.40;55.50
10089;DHT22;51898;49.864;8.550;2023-02-10T14:48:47;7.50;54.90
10089;DHT22;51898;49.864;8.550;2023-02-10T14:51:50;7.50;54.50
10089;DHT22;51898;49.864;8.550;2023-02-10T14:54:52;7.40;54.90
10089;DHT22;51898;49.864;8.550;2023-02-10T15:04:22;7.20;55.60
10089;DHT22;51898;49.864;8.550;2023-02-10T15:07:30;7.10;56.30
10089;DHT22;51898;49.864;8.550;2023-02-10T15:10:41;7.00;56.30
10089;DHT22;51898;49.864;8.550;2023-02-10T15:13:47;6.90;57.30
10089;DHT22;51898;49.864;8.550;2023-02-10T15:16:50;6.80;58.30
10089;DHT22;51898;49.864;8.550;2023-02-10T15:19:55;6.60;58.90
10089;DHT22;51898;49.864;8.550;2023-02-10T15:26:02;6.40;59.60
10089;DHT22;51898;49.864;8.550;2023-02-10T15:29:15;6.40;60.10
10089;DHT22;51898;49.864;8.550;2023-02-10T15:32:19;6.40;59.90
10089;DHT22;51898;49.864;8.550;2023-02-10T15:35:22;6.30;60.20
10089;DHT22;51898;49.864;8.550;2023-02-10T15:38:24;6.30;59.90
10089;DHT22;51898;49.864;8.550;2023-02-10T15:41:42;6.30;59.90
10089;DHT22;51898;49.864;8.550;2023-02-10T15:44:45;6.30;59.40
10089;DHT22;51898;49.864;8.550;2023-02-10T15:47:53;6.30;59.60
10089;DHT22;51898;49.864;8.550;2023-02-10T15:50:55;6.30;59.60
10089;DHT22;51898;49.864;8.550;2023-02-10T15:53:56;6.40;59.50
10089;DHT22;51898;49.864;8.550;2023-02-10T15:57:04;6.30;59.90
10089;DHT22;51898;49.864;8.550;2023-02-10T16:00:16;6.10;60.60
10089;DHT22;51898;49.864;8.550;2023-02-10T16:03:18;6.00;61.70
10089;DHT22;51898;49.864;8.550;2023-02-10T16:06:20;5.90;62.40
10089;DHT22;51898;49.864;8.550;2023-02-10T16:09:22;5.80;62.70
10089;DHT22;51898;49.864;8.550;2023-02-10T16:12:24;5.80;63.00
10089;DHT22;51898;49.864;8.550;2023-02-10T16:15:26;5.70;62.80
10089;DHT22;51898;49.864;8.550;2023-02-10T16:18:28;5.70;63.00
10089;DHT22;51898;49.864;8.550;2023-02-10T16:21:31;5.70;63.00
10089;DHT22;51898;49.864;8.550;2023-02-10T16:24:32;5.60;63.40
10089;DHT22;51898;49.864;8.550;2023-02-10T16:27:34;5.60;63.60
10089;DHT22;51898;49.864;8.550;2023-02-10T16:30:35;5.50;63.90
10089;DHT22;51898;49.864;8.550;2023-02-10T16:33:37;5.50;64.00
10089;DHT22;51898;49.864;8.550;2023-02-10T16:36:40;5.50;64.10
10089;DHT22;51898;49.864;8.550;2023-02-10T16:39:43;5.40;64.30
10089;DHT22;51898;49.864;8.550;2023-02-10T16:42:45;5.40;64.60
10089;DHT22;51898;49.864;8.550;2023-02-10T16:45:47;5.30;64.70
10089;DHT22;51898;49.864;8.550;2023-02-10T16:48:49;5.30;64.70
10089;DHT22;51898;49.864;8.550;2023-02-10T16:51:50;5.20;64.90
10089;DHT22;51898;49.864;8.550;2023-02-10T16:54:52;5.20;64.90
10089;DHT22;51898;49.864;8.550;2023-02-10T16:57:54;5.20;65.10
10089;DHT22;51898;49.864;8.550;2023-02-10T17:00:56;5.20;65.10
10089;DHT22;51898;49.864;8.550;2023-02-10T17:03:58;5.10;65.40
10089;DHT22;51898;49.864;8.550;2023-02-10T17:07:00;5.10;65.40
10089;DHT22;51898;49.864;8.550;2023-02-10T17:10:04;5.00;65.50
10089;DHT22;51898;49.864;8.550;2023-02-10T17:13:06;5.00;65.60
10089;DHT22;51898;49.864;8.550;2023-02-10T17:16:21;4.90;65.80
10089;DHT22;51898;49.864;8.550;2023-02-10T17:19:25;4.90;66.00
10089;DHT22;51898;49.864;8.550;2023-02-10T17:22:29;4.70;66.40
10089;DHT22;51898;49.864;8.550;2023-02-10T17:25:30;4.60;66.80
10089;DHT22;51898;49.864;8.550;2023-02-10T17:28:34;4.50;67.20
10089;DHT22;51898;49.864;8.550;2023-02-10T17:31:36;4.40;67.90
10089;DHT22;51898;49.864;8.550;2023-02-10T17:34:39;4.30;68.40
10089;DHT22;51898;49.864;8.550;2023-02-10T17:37:41;4.20;68.70
10089;DHT22;51898;49.864;8.550;2023-02-10T17:40:45;4.10;69.10
10089;DHT22;51898;49.864;8.550;2023-02-10T17:43:47;4.00;69.50
10089;DHT22;51898;49.864;8.550;2023-02-10T17:46:50;3.90;70.00
10089;DHT22;51898;49.864;8.550;2023-02-10T17:49:56;3.80;70.00
10089;DHT22;51898;49.864;8.550;2023-02-10T17:52:57;3.70;70.40
10089;DHT22;51898;49.864;8.550;2023-02-10T17:56:01;3.60;71.00
10089;DHT22;51898;49.864;8.550;2023-02-10T17:59:03;3.50;71.10
10089;DHT22;51898;49.864;8.550;2023-02-10T18:02:05;3.40;71.30
10089;DHT22;51898;49.864;8.550;2023-02-10T18:05:08;3.30;71.60
10089;DHT22;51898;49.864;8.550;2023-02-10T18:08:10;3.20;71.70
10089;DHT22;51898;49.864;8.550;2023-02-10T18:11:12;3.10;71.80
10089;DHT22;51898;49.864;8.550;2023-02-10T18:14:14;3.10;71.40
10089;DHT22;51898;49.864;8.550;2023-02-10T18:17:17;3.00;71.10
10089;DHT22;51898;49.864;8.550;2023-02-10T18:20:19;3.00;70.80
10089;DHT22;51898;49.864;8.550;2023-02-10T18:23:22;3.00;70.50
10089;DHT22;51898;49.864;8.550;2023-02-10T18:26:24;3.00;70.60
10089;DHT22;51898;49.864;8.550;2023-02-10T18:29:26;2.90;70.90
10089;DHT22;51898;49.864;8.550;2023-02-10T18:32:27;2.90;71.00
10089;DHT22;51898;49.864;8.550;2023-02-10T18:35:30;2.90;71.20
10089;DHT22;51898;49.864;8.550;2023-02-10T18:38:35;2.80;71.40
10089;DHT22;51898;49.864;8.550;2023-02-10T18:41:36;2.70;71.80
10089;DHT22;51898;49.864;8.550;2023-02-10T18:44:38;2.70;71.90
10089;DHT22;51898;49.864;8.550;2023-02-10T18:47:40;2.70;71.90
10089;DHT22;51898;49.864;8.550;2023-02-10T18:50:46;2.60;72.10
10089;DHT22;51898;49.864;8.550;2023-02-10T18:53:48;2.60;72.50
10089;DHT22;51898;49.864;8.550;2023-02-10T18:56:53;2.50;72.60
10089;DHT22;51898;49.864;8.550;2023-02-10T18:59:54;2.50;72.70
10089;DHT22;51898;49.864;8.550;2023-02-10T19:02:56;2.50;72.80
10089;DHT22;51898;49.864;8.550;2023-02-10T19:05:58;2.50;72.80
10089;DHT22;51898;49.864;8.550;2023-02-10T19:09:00;2.40;73.10
10089;DHT22;51898;49.864;8.550;2023-02-10T19:12:02;2.40;73.20
10089;DHT22;51898;49.864;8.550;2023-02-10T19:15:04;2.40;73.50
10089;DHT22;51898;49.864;8.550;2023-02-10T19:18:06;2.40;73.90
10089;DHT22;51898;49.864;8.550;2023-02-10T19:21:07;2.40;74.30
10089;DHT22;51898;49.864;8.550;2023-02-10T19:24:13;2.40;74.80
10089;DHT22;51898;49.864;8.550;2023-02-10T19:27:15;2.40;74.90
10089;DHT22;51898;49.864;8.550;2023-02-10T19:30:17;2.40;74.80
10089;DHT22;51898;49.864;8.550;2023-02-10T19:33:18;2.50;74.50
10089;DHT22;51898;49.864;8.550;2023-02-10T19:36:20;2.40;74.60
10089;DHT22;51898;49.864;8.550;2023-02-10T19:39:22;2.40;74.60
10089;DHT22;51898;49.864;8.550;2023-02-10T19:42:24;2.40;74.60
10089;DHT22;51898;49.864;8.550;2023-02-10T19:45:26;2.40;74.80
10089;DHT22;51898;49.864;8.550;2023-02-10T19:48:28;2.40;74.90
10089;DHT22;51898;49.864;8.550;2023-02-10T19:51:29;2.40;75.20
10089;DHT22;51898;49.864;8.550;2023-02-10T19:54:31;2.30;75.50
10089;DHT22;51898;49.864;8.550;2023-02-10T19:57:33;2.30;75.60
10089;DHT22;51898;49.864;8.550;2023-02-10T20:00:34;2.30;75.90
10089;DHT22;51898;49.864;8.550;2023-02-10T20:03:37;2.20;76.10
10089;DHT22;51898;49.864;8.550;2023-02-10T20:06:44;2.20;76.40
10089;DHT22;51898;49.864;8.550;2023-02-10T20:09:46;2.20;76.70
10089;DHT22;51898;49.864;8.550;2023-02-10T20:12:48;2.20;76.80
10089;DHT22;51898;49.864;8.550;2023-02-10T20:15:50;2.10;77.20
10089;DHT22;51898;49.864;8.550;2023-02-10T20:18:52;2.10;77.70
10089;DHT22;51898;49.864;8.550;2023-02-10T20:21:53;2.00;78.00
10089;DHT22;51898;49.864;8.550;2023-02-10T20:24:55;2.00;78.20
10089;DHT22;51898;49.864;8.550;2023-02-10T20:27:57;2.00;78.60
10089;DHT22;51898;49.864;8.550;2023-02-10T20:31:01;1.90;78.90
10089;DHT22;51898;49.864;8.550;2023-02-10T20:34:03;1.90;79.10
10089;DHT22;51898;49.864;8.550;2023-02-10T20:37:05;1.80;79.60
10089;DHT22;51898;49.864;8.550;2023-02-10T20:40:07;1.80;80.00
10089;DHT22;51898;49.864;8.550;2023-02-10T20:43:08;1.70;80.20
10089;DHT22;51898;49.864;8.550;2023-02-10T20:46:10;1.70;80.30
10089;DHT22;51898;49.864;8.550;2023-02-10T20:49:13;1.70;80.30
10089;DHT22;51898;49.864;8.550;2023-02-10T20:52:15;1.70;80.30
10089;DHT22;51898;49.864;8.550;2023-02-10T20:55:17;1.60;80.40
10089;DHT22;51898;49.864;8.550;2023-02-10T20:58:19;1.60;80.60
10089;DHT22;51898;49.864;8.550;2023-02-10T21:01:21;1.60;80.70
10089;DHT22;51898;49.864;8.550;2023-02-10T21:04:23;1.60;80.80
10089;DHT22;51898;49.864;8.550;2023-02-10T21:07:25;1.50;80.90
10089;DHT22;51898;49.864;8.550;2023-02-10T21:10:27;1.50;81.10
10089;DHT22;51898;49.864;8.550;2023-02-10T21:13:28;1.50;81.30
10089;DHT22;51898;49.864;8.550;2023-02-10T21:16:31;1.60;81.40